createdAt,value
2022-08-08T00:00:56.800Z,35.2
2022-08-08T00:08:12.777Z,35.24
2022-08-08T00:15:55.816Z,35.25
2022-08-08T00:22:50.323Z,35.11
2022-08-08T00:29:48.906Z,35.14
2022-08-08T00:36:55.225Z,35.2
2022-08-08T00:44:04.117Z,35.11
2022-08-08T00:51:07.611Z,34.65
2022-08-08T00:58:32.831Z,34.79
2022-08-08T01:05:59.011Z,34.74
2022-08-08T01:13:06.744Z,34.71
2022-08-08T01:20:15.397Z,34.94
2022-08-08T01:27:10.724Z,35.04
2022-08-08T01:34:20.663Z,34.86
2022-08-08T01:41:19.687Z,34.96
2022-08-08T01:48:31.178Z,35.02
2022-08-08T01:56:21.748Z,34.86
2022-08-08T02:02:58.348Z,34.94
2022-08-08T02:10:11.957Z,35.05
2022-08-08T02:17:20.916Z,35.04
2022-08-08T02:24:27.902Z,35.04
2022-08-08T02:31:44.068Z,34.96
2022-08-08T02:39:01.467Z,34.97
2022-08-08T02:46:18.268Z,35.02
2022-08-08T02:53:30.774Z,35.01
2022-08-08T03:00:36.952Z,35
2022-08-08T03:07:41.098Z,34.99
2022-08-08T03:15:54.798Z,35.02
2022-08-08T03:22:00.876Z,34.95
2022-08-08T03:28:41.802Z,34.94
2022-08-08T03:35:20.825Z,34.98
2022-08-08T03:42:13.619Z,34.96
2022-08-08T03:49:10.274Z,34.88
2022-08-08T03:55:55.496Z,34.84
2022-08-08T04:02:31.845Z,34.83
2022-08-08T04:09:11.640Z,34.79
2022-08-08T04:15:55.241Z,34.87
2022-08-08T04:22:38.742Z,34.87
2022-08-08T04:29:03.975Z,34.91
2022-08-08T04:35:50.736Z,34.88
2022-08-08T04:42:23.920Z,34.64
2022-08-08T04:48:50.718Z,34.78
2022-08-08T04:55:23.393Z,34.52
2022-08-08T05:02:01.613Z,34.63
2022-08-08T05:08:34.143Z,34.74
2022-08-08T05:14:59.886Z,34.82
2022-08-08T05:21:43.254Z,34.88
2022-08-08T05:28:27.926Z,34.82
2022-08-08T05:35:10.051Z,34.77
2022-08-08T05:42:06.337Z,34.79
2022-08-08T05:48:52.763Z,34.85
2022-08-08T05:55:26.087Z,34.85
2022-08-08T06:02:09.916Z,34.75
2022-08-08T06:09:42.279Z,34.78
2022-08-08T06:16:09.831Z,34.68
2022-08-08T06:22:50.907Z,34.73
2022-08-08T06:29:48.993Z,34.69
2022-08-08T06:36:53.471Z,34.64
2022-08-08T06:43:56.984Z,34.68
2022-08-08T06:50:31.654Z,34.61
2022-08-08T06:57:15.537Z,34.58
2022-08-08T07:04:36.070Z,34.52
2022-08-08T07:11:22.340Z,34.58
2022-08-08T07:18:41.750Z,34.67
2022-08-08T07:25:54.383Z,34.59
2022-08-08T07:32:33.899Z,34.6
2022-08-08T07:39:10.750Z,34.58
2022-08-08T07:46:06.091Z,34.51
2022-08-08T07:52:43.577Z,34.57
2022-08-08T07:59:51.336Z,34.52
2022-08-08T08:07:03.363Z,34.48
2022-08-08T08:14:06.590Z,34.4
2022-08-08T08:20:59.457Z,34.47
2022-08-08T08:27:37.362Z,34.25
2022-08-08T08:34:06.901Z,34.33
2022-08-08T08:40:48.557Z,34.23
2022-08-08T08:47:44.043Z,34.23
2022-08-08T08:54:25.884Z,34.37
2022-08-08T09:01:14.652Z,34.43
2022-08-08T09:08:12.557Z,34.41
2022-08-08T09:15:01.946Z,34.43
2022-08-08T09:21:54.993Z,34.45
2022-08-08T09:28:39.390Z,34.33
2022-08-08T09:35:37.193Z,34.45
2022-08-08T09:42:51.282Z,34.48
2022-08-08T09:49:50.055Z,34.49
2022-08-08T09:56:41.207Z,34.38
2022-08-08T10:03:42.389Z,34.43
2022-08-08T10:10:32.491Z,34.46
2022-08-08T10:17:38.955Z,34.51
2022-08-08T10:24:28.942Z,34.56
2022-08-08T10:31:45.186Z,34.39
2022-08-08T10:38:28.016Z,34.48
2022-08-08T10:45:16.652Z,34.48
2022-08-08T10:51:54.554Z,34.43
2022-08-08T10:58:31.570Z,34.42
2022-08-08T11:05:23.535Z,34.46
2022-08-08T11:12:06.625Z,34.48
2022-08-08T11:18:51.457Z,34.43
2022-08-08T11:25:53.714Z,34.53
2022-08-08T11:32:29.230Z,34.51
2022-08-08T11:39:13.594Z,34.47
2022-08-08T11:46:09.494Z,34.42
2022-08-08T11:52:34.504Z,34.49
2022-08-08T11:59:58.100Z,34.39
2022-08-08T12:06:46.280Z,34.24
2022-08-08T12:14:02.605Z,34.29
2022-08-08T12:20:54.132Z,34.25
2022-08-08T12:27:35.581Z,34.38
2022-08-08T12:34:19.478Z,34.31
2022-08-08T12:41:16.674Z,34.14
2022-08-08T12:48:18.358Z,34.2
2022-08-08T12:55:32.072Z,34.31
2022-08-08T13:02:28.953Z,34.2
2022-08-08T13:09:33.505Z,34.34
2022-08-08T13:16:41.219Z,34.33
2022-08-08T13:23:30.452Z,34.39
2022-08-08T13:30:00.276Z,34.4
2022-08-08T13:36:36.151Z,34.39
2022-08-08T13:43:16.708Z,34.31
2022-08-08T13:50:34.023Z,34.37
2022-08-08T13:57:13.378Z,34.34
2022-08-08T14:04:19.213Z,34.35
2022-08-08T14:11:02.591Z,34.27
2022-08-08T14:17:36.286Z,34.34
2022-08-08T14:24:24.123Z,34.28
2022-08-08T14:31:37.252Z,34.27
2022-08-08T14:38:52.266Z,34.22
2022-08-08T14:46:01.192Z,34.29
2022-08-08T14:52:46.809Z,34.33
2022-08-08T14:59:44.807Z,34.35
2022-08-08T15:06:23.101Z,34.41
2022-08-08T15:12:47.594Z,34.36
2022-08-08T15:19:16.949Z,34.4
2022-08-08T15:25:55.264Z,34.33
2022-08-08T15:32:32.199Z,34.33
2022-08-08T15:38:55.159Z,34.36
2022-08-08T15:45:23.579Z,34.28
2022-08-08T15:51:59.168Z,34.28
2022-08-08T15:58:28.514Z,34.28
2022-08-08T16:05:14.701Z,34.28
2022-08-08T16:13:06.239Z,34.3
2022-08-08T16:18:33.335Z,34.3
2022-08-08T16:25:05.980Z,34.35
2022-08-08T16:31:29.695Z,34.39
2022-08-08T16:37:57.846Z,34.45
2022-08-08T16:44:47.572Z,34.38
2022-08-08T16:54:59.282Z,34.49
2022-08-08T16:58:18.178Z,34.43
2022-08-08T17:04:50.631Z,34.52
2022-08-08T17:11:21.137Z,34.5
2022-08-08T17:18:04.764Z,34.59
2022-08-08T17:24:54.244Z,34.63
2022-08-08T17:31:43.159Z,34.68
2022-08-08T17:38:15.185Z,34.71
2022-08-08T17:44:44.901Z,34.77
2022-08-08T17:51:17.982Z,34.56
2022-08-08T17:57:45.376Z,34.65
2022-08-08T18:04:28.784Z,34.62
2022-08-08T18:11:03.652Z,34.76
2022-08-08T18:18:05.746Z,34.84
2022-08-08T18:24:25.810Z,34.82
2022-08-08T18:31:06.670Z,34.92
2022-08-08T18:37:48.201Z,34.89
2022-08-08T18:44:16.026Z,34.94
2022-08-08T18:50:50.030Z,35
2022-08-08T18:57:18.240Z,34.98
2022-08-08T19:04:05.534Z,35.03
2022-08-08T19:10:44.571Z,35.04
2022-08-08T19:17:29.126Z,35.04
2022-08-08T19:23:58.249Z,34.72
2022-08-08T19:30:26.809Z,34.96
2022-08-08T19:37:03.699Z,34.77
2022-08-08T19:43:32.248Z,34.62
2022-08-08T19:50:08.952Z,34.86
2022-08-08T19:56:41.679Z,34.69
2022-08-08T20:04:00.716Z,34.94
2022-08-08T20:10:04.586Z,34.89
2022-08-08T20:16:40.662Z,34.88
2022-08-08T20:23:16.576Z,34.89
2022-08-08T20:29:56.207Z,34.95
2022-08-08T20:36:27.738Z,34.9
2022-08-08T20:42:55.161Z,35.01
2022-08-08T20:49:32.586Z,34.9
2022-08-08T20:56:01.191Z,35.08
2022-08-08T21:02:29.415Z,34.99
2022-08-08T21:09:03.332Z,35.15
2022-08-08T21:16:04.454Z,35.23
2022-08-08T21:22:09.599Z,35.19
2022-08-08T21:28:46.163Z,35.26
2022-08-08T21:36:13.378Z,35.17
2022-08-08T21:42:00.881Z,35.21
2022-08-08T21:48:30.260Z,35.27
2022-08-08T21:55:04.433Z,35.23
2022-08-08T22:01:55.317Z,35.19
2022-08-08T22:08:24.782Z,35.22
2022-08-08T22:14:50.546Z,35.23
2022-08-08T22:21:22.168Z,35.23
2022-08-08T22:28:01.149Z,35.22
2022-08-08T22:34:39.699Z,35.24
2022-08-08T22:41:16.212Z,35.26
2022-08-08T22:47:52.738Z,35.24
2022-08-08T22:54:28.959Z,35.28
2022-08-08T23:01:26.833Z,35.2
2022-08-08T23:07:57.916Z,35.26
2022-08-08T23:14:26.028Z,35.19
2022-08-08T23:20:57.475Z,35
2022-08-08T23:27:38.302Z,35.1
2022-08-08T23:34:18.046Z,34.82
2022-08-08T23:40:58.466Z,35.17
2022-08-08T23:48:58.415Z,34.94
2022-08-08T23:54:39.713Z,35.13
